createdAt,value
2019-02-16T00:00:46.580Z,5.70
2019-02-16T00:03:18.125Z,5.50
2019-02-16T00:05:47.391Z,5.53
2019-02-16T00:08:16.673Z,6.17
2019-02-16T00:10:45.966Z,5.80
2019-02-16T00:13:15.240Z,5.30
2019-02-16T00:15:44.525Z,5.80
2019-02-16T00:18:14.788Z,5.43
2019-02-16T00:20:44.054Z,5.83
2019-02-16T00:23:13.337Z,5.27
2019-02-16T00:25:44.211Z,6.10
2019-02-16T00:28:13.506Z,6.17
2019-02-16T00:30:42.793Z,5.77
2019-02-16T00:33:12.096Z,6.33
2019-02-16T00:35:41.382Z,5.90
2019-02-16T00:38:11.345Z,6.43
2019-02-16T00:40:41.273Z,6.13
2019-02-16T00:43:11.927Z,6.27
2019-02-16T00:45:41.850Z,6.17
2019-02-16T00:48:11.126Z,7.07
2019-02-16T00:50:40.418Z,6.50
2019-02-16T00:53:10.954Z,7.03
2019-02-16T00:55:40.241Z,6.20
2019-02-16T00:58:09.509Z,5.80
2019-02-16T01:00:38.793Z,6.77
2019-02-16T01:03:08.064Z,7.30
2019-02-16T01:05:38.417Z,6.87
2019-02-16T01:08:07.705Z,8.47
2019-02-16T01:10:36.981Z,7.53
2019-02-16T01:13:06.268Z,7.30
2019-02-16T01:15:35.551Z,7.63
2019-02-16T01:18:04.861Z,7.53
2019-02-16T01:20:34.153Z,6.83
2019-02-16T01:23:03.420Z,7.00
2019-02-16T01:25:32.740Z,7.20
2019-02-16T01:28:02.006Z,7.13
2019-02-16T01:30:31.293Z,6.60
2019-02-16T01:33:00.570Z,7.13
2019-02-16T01:35:29.857Z,7.60
2019-02-16T01:37:59.130Z,6.73
2019-02-16T01:40:28.408Z,7.17
2019-02-16T01:42:57.717Z,6.33
2019-02-16T01:45:26.981Z,5.77
2019-02-16T01:47:56.244Z,6.03
2019-02-16T01:50:25.533Z,6.80
2019-02-16T01:52:54.807Z,6.70
2019-02-16T01:55:24.098Z,6.60
2019-02-16T01:57:54.661Z,6.00
2019-02-16T02:00:23.982Z,6.33
2019-02-16T02:02:53.245Z,6.27
2019-02-16T02:05:22.542Z,6.13
2019-02-16T02:07:51.816Z,5.93
2019-02-16T02:10:21.408Z,6.53
2019-02-16T02:12:50.703Z,5.57
2019-02-16T02:15:19.980Z,6.80
2019-02-16T02:17:50.237Z,6.07
2019-02-16T02:20:19.582Z,6.87
2019-02-16T02:22:48.872Z,6.40
2019-02-16T02:25:18.148Z,6.43
2019-02-16T02:27:47.435Z,6.33
2019-02-16T02:30:16.717Z,6.63
2019-02-16T02:32:46.007Z,5.90
2019-02-16T02:35:15.288Z,5.53
2019-02-16T02:37:44.634Z,5.60
2019-02-16T02:40:13.904Z,5.77
2019-02-16T02:42:43.253Z,6.00
2019-02-16T02:45:12.561Z,5.97
2019-02-16T02:47:43.067Z,5.83
2019-02-16T02:50:12.364Z,5.17
2019-02-16T02:52:41.879Z,4.77
2019-02-16T02:55:11.167Z,5.60
2019-02-16T02:57:40.671Z,4.23
2019-02-16T03:00:10.518Z,4.73
2019-02-16T03:02:40.912Z,4.57
2019-02-16T03:05:10.681Z,4.97
2019-02-16T03:07:39.940Z,5.10
2019-02-16T03:10:09.238Z,4.50
2019-02-16T03:12:38.515Z,4.93
2019-02-16T03:15:08.145Z,4.93
2019-02-16T03:17:37.419Z,5.27
2019-02-16T03:20:07.127Z,5.37
2019-02-16T03:22:41.958Z,4.87
2019-02-16T03:25:11.348Z,5.20
2019-02-16T03:27:43.691Z,5.87
2019-02-16T03:30:28.100Z,4.67
2019-02-16T03:33:06.399Z,4.77
2019-02-16T03:35:55.367Z,5.73
2019-02-16T03:38:27.724Z,4.60
2019-02-16T03:40:57.015Z,4.63
2019-02-16T03:43:26.321Z,5.40
2019-02-16T03:45:55.587Z,5.10
2019-02-16T03:48:26.954Z,4.50
2019-02-16T03:50:56.226Z,5.30
2019-02-16T03:53:26.732Z,4.90
2019-02-16T03:55:56.008Z,5.10
2019-02-16T03:58:25.551Z,4.97
2019-02-16T04:00:54.826Z,5.30
2019-02-16T04:03:24.124Z,4.83
2019-02-16T04:05:53.390Z,4.50
2019-02-16T04:08:22.752Z,5.37
2019-02-16T04:10:53.554Z,5.23
2019-02-16T04:13:22.848Z,4.70
2019-02-16T04:15:52.160Z,4.80
2019-02-16T04:18:21.444Z,4.60
2019-02-16T04:20:50.753Z,5.33
2019-02-16T04:23:20.025Z,5.30
2019-02-16T04:25:49.322Z,4.90
2019-02-16T04:28:18.588Z,5.13
2019-02-16T04:30:48.231Z,4.90
2019-02-16T04:33:17.543Z,5.90
2019-02-16T04:35:46.842Z,5.20
2019-02-16T04:38:16.121Z,5.27
2019-02-16T04:40:45.427Z,6.23
2019-02-16T04:43:14.715Z,5.67
2019-02-16T04:45:44.023Z,6.03
2019-02-16T04:48:13.309Z,6.67
2019-02-16T04:50:43.771Z,5.87
2019-02-16T04:53:13.049Z,5.70
2019-02-16T04:55:42.346Z,5.77
2019-02-16T04:58:11.615Z,5.63
2019-02-16T05:00:40.927Z,6.97
2019-02-16T05:03:10.258Z,6.03
2019-02-16T05:05:39.651Z,6.23
2019-02-16T05:08:08.926Z,5.93
2019-02-16T05:10:38.207Z,5.87
2019-02-16T05:13:07.503Z,6.23
2019-02-16T05:15:36.771Z,6.00
2019-02-16T05:18:07.030Z,6.13
2019-02-16T05:20:36.312Z,6.13
2019-02-16T05:23:05.606Z,6.50
2019-02-16T05:25:34.881Z,6.73
2019-02-16T05:28:04.436Z,6.47
2019-02-16T05:30:33.719Z,7.20
2019-02-16T05:33:03.037Z,7.20
2019-02-16T05:35:32.332Z,6.93
2019-02-16T05:38:01.612Z,7.30
2019-02-16T05:40:30.910Z,6.53
2019-02-16T05:43:00.173Z,8.77
2019-02-16T05:45:29.481Z,7.40
2019-02-16T05:48:00.379Z,7.10
2019-02-16T05:50:29.679Z,6.67
2019-02-16T05:52:59.643Z,7.40
2019-02-16T05:55:28.938Z,6.83
2019-02-16T05:57:58.303Z,7.73
2019-02-16T06:00:29.265Z,7.23
2019-02-16T06:02:58.607Z,7.13
2019-02-16T06:05:27.913Z,7.80
2019-02-16T06:07:57.229Z,8.73
2019-02-16T06:10:26.558Z,7.97
2019-02-16T06:12:55.869Z,8.13
2019-02-16T06:15:25.150Z,8.07
2019-02-16T06:17:54.454Z,7.73
2019-02-16T06:20:23.742Z,8.60
2019-02-16T06:22:53.047Z,8.00
2019-02-16T06:25:22.330Z,8.20
2019-02-16T06:27:51.629Z,7.73
2019-02-16T06:30:20.930Z,7.90
2019-02-16T06:32:50.215Z,8.07
2019-02-16T06:35:29.999Z,7.37
2019-02-16T06:37:59.298Z,7.43
2019-02-16T06:40:28.579Z,8.07
2019-02-16T06:42:57.887Z,8.50
2019-02-16T06:45:27.386Z,7.53
2019-02-16T06:47:56.662Z,7.70
2019-02-16T06:50:25.964Z,8.57
2019-02-16T06:52:57.315Z,7.23
2019-02-16T06:55:28.266Z,8.07
2019-02-16T06:57:57.550Z,7.97
2019-02-16T07:00:27.514Z,7.47
2019-02-16T07:02:56.783Z,8.80
2019-02-16T07:05:26.084Z,8.43
2019-02-16T07:07:55.366Z,8.03
2019-02-16T07:10:24.674Z,7.97
2019-02-16T07:12:53.944Z,7.33
2019-02-16T07:15:23.969Z,8.30
2019-02-16T07:17:55.873Z,7.80
2019-02-16T07:20:25.187Z,7.47
2019-02-16T07:22:54.458Z,7.50
2019-02-16T07:25:23.746Z,8.17
2019-02-16T07:27:53.048Z,6.83
2019-02-16T07:30:22.894Z,6.83
2019-02-16T07:32:52.195Z,6.77
2019-02-16T07:35:21.475Z,6.87
2019-02-16T07:37:50.773Z,6.90
2019-02-16T07:40:20.068Z,7.47
2019-02-16T07:42:51.031Z,7.37
2019-02-16T07:45:44.567Z,7.63
2019-02-16T07:48:15.512Z,7.90
2019-02-16T07:50:46.440Z,8.33
2019-02-16T07:53:17.370Z,7.37
2019-02-16T07:55:48.285Z,9.40
2019-02-16T07:58:19.250Z,8.63
2019-02-16T08:00:53.183Z,9.23
2019-02-16T08:03:35.763Z,9.17
2019-02-16T08:06:06.687Z,9.10
2019-02-16T08:08:53.986Z,8.63
2019-02-16T08:11:33.679Z,8.20
2019-02-16T08:14:07.538Z,8.30
2019-02-16T08:16:41.152Z,9.20
2019-02-16T08:19:12.103Z,8.80
2019-02-16T08:21:45.991Z,8.93
2019-02-16T08:24:26.032Z,9.00
2019-02-16T08:27:14.812Z,8.53
2019-02-16T08:29:45.767Z,9.10
2019-02-16T08:32:20.036Z,8.80
2019-02-16T08:34:56.707Z,8.90
2019-02-16T08:37:43.855Z,9.10
2019-02-16T08:40:19.774Z,10.23
2019-02-16T08:43:06.619Z,10.20
2019-02-16T08:45:40.407Z,10.67
2019-02-16T08:48:26.679Z,9.83
2019-02-16T08:51:01.939Z,10.40
2019-02-16T08:53:32.910Z,10.40
2019-02-16T08:56:09.651Z,10.53
2019-02-16T08:59:00.125Z,11.13
2019-02-16T09:01:34.087Z,11.17
2019-02-16T09:04:14.125Z,11.67
2019-02-16T09:06:50.822Z,11.57
2019-02-16T09:09:33.507Z,10.30
2019-02-16T09:12:06.029Z,12.70
2019-02-16T09:14:38.000Z,11.23
2019-02-16T09:17:09.199Z,11.57
2019-02-16T09:19:43.878Z,11.87
2019-02-16T09:22:15.083Z,11.73
2019-02-16T09:24:46.026Z,12.27
2019-02-16T09:27:16.949Z,12.20
2019-02-16T09:29:56.726Z,12.67
2019-02-16T09:32:33.196Z,13.47
2019-02-16T09:35:20.127Z,12.60
2019-02-16T09:37:52.607Z,13.03
2019-02-16T09:40:33.071Z,13.30
2019-02-16T09:43:09.684Z,13.43
2019-02-16T09:45:43.318Z,12.43
2019-02-16T09:48:14.246Z,13.60
2019-02-16T09:50:55.458Z,13.00
2019-02-16T09:53:42.622Z,12.60
2019-02-16T09:56:14.584Z,13.43
2019-02-16T09:58:45.505Z,12.93
2019-02-16T10:01:30.722Z,13.83
2019-02-16T10:04:01.639Z,12.30
2019-02-16T10:06:49.280Z,13.57
2019-02-16T10:09:20.219Z,13.60
2019-02-16T10:11:51.143Z,13.50
2019-02-16T10:14:25.882Z,13.67
2019-02-16T10:17:10.039Z,13.77
2019-02-16T10:19:41.059Z,13.27
2019-02-16T10:22:28.454Z,13.53
2019-02-16T10:24:59.399Z,13.13
2019-02-16T10:27:33.247Z,12.77
2019-02-16T10:30:04.204Z,13.23
2019-02-16T10:32:48.350Z,14.33
2019-02-16T10:35:21.847Z,14.27
2019-02-16T10:37:52.787Z,13.80
2019-02-16T10:40:29.535Z,14.13
2019-02-16T10:43:12.319Z,13.20
2019-02-16T10:45:43.263Z,13.80
2019-02-16T10:48:16.885Z,13.47
2019-02-16T10:50:50.547Z,13.03
2019-02-16T10:53:33.491Z,13.77
2019-02-16T10:56:16.526Z,13.33
2019-02-16T10:59:03.099Z,12.77
2019-02-16T11:01:36.934Z,14.20
2019-02-16T11:04:13.939Z,14.17
2019-02-16T11:06:45.179Z,14.10
2019-02-16T11:09:18.790Z,14.37
2019-02-16T11:11:53.227Z,13.83
2019-02-16T11:14:27.146Z,12.93
2019-02-16T11:17:16.158Z,13.60
2019-02-16T11:19:47.112Z,13.93
2019-02-16T11:22:23.742Z,13.70
2019-02-16T11:24:57.383Z,12.40
2019-02-16T11:27:33.095Z,13.83
2019-02-16T11:30:16.106Z,13.93
2019-02-16T11:32:47.058Z,14.07
2019-02-16T11:35:17.982Z,14.23
2019-02-16T11:37:57.903Z,13.83
2019-02-16T11:40:28.823Z,14.40
2019-02-16T11:43:03.523Z,13.90
2019-02-16T11:45:50.413Z,13.53
2019-02-16T11:48:21.383Z,13.90
2019-02-16T11:51:09.847Z,14.33
2019-02-16T11:53:42.971Z,14.73
2019-02-16T11:56:22.575Z,13.47
2019-02-16T11:58:53.634Z,14.47
2019-02-16T12:01:26.998Z,13.97
2019-02-16T12:04:14.398Z,14.40
2019-02-16T12:06:54.054Z,14.57
2019-02-16T12:09:30.714Z,14.03
2019-02-16T12:12:17.747Z,15.03
2019-02-16T12:14:58.324Z,14.57
2019-02-16T12:17:38.003Z,14.43
2019-02-16T12:20:10.175Z,14.07
2019-02-16T12:22:44.090Z,14.60
2019-02-16T12:25:15.030Z,14.43
2019-02-16T12:28:03.866Z,15.40
2019-02-16T12:30:35.062Z,13.67
2019-02-16T12:33:06.018Z,14.40
2019-02-16T12:35:48.906Z,13.23
2019-02-16T12:38:36.547Z,14.57
2019-02-16T12:41:07.478Z,14.87
2019-02-16T12:43:38.438Z,15.33
2019-02-16T12:46:09.368Z,15.63
2019-02-16T12:48:52.373Z,14.23
2019-02-16T12:51:23.310Z,15.90
2019-02-16T12:54:02.784Z,15.90
2019-02-16T12:56:33.704Z,16.10
2019-02-16T12:59:05.243Z,15.93
2019-02-16T13:01:38.928Z,14.80
2019-02-16T13:04:12.810Z,15.23
2019-02-16T13:06:59.012Z,15.63
2019-02-16T13:09:29.939Z,18.03
2019-02-16T13:12:00.902Z,16.87
2019-02-16T13:14:34.832Z,17.80
2019-02-16T13:17:06.031Z,16.53
2019-02-16T13:19:39.716Z,16.77
2019-02-16T13:22:10.665Z,16.53
2019-02-16T13:24:41.588Z,15.87
2019-02-16T13:27:15.490Z,15.43
2019-02-16T13:29:46.654Z,14.97
2019-02-16T13:32:33.986Z,14.70
2019-02-16T13:35:07.739Z,14.90
2019-02-16T13:37:53.551Z,17.60
2019-02-16T13:40:36.191Z,15.27
2019-02-16T13:43:10.077Z,16.40
2019-02-16T13:45:46.983Z,14.83
2019-02-16T13:48:17.943Z,17.23
2019-02-16T13:50:59.056Z,16.83
2019-02-16T13:53:46.027Z,14.60
2019-02-16T13:56:19.781Z,13.87
2019-02-16T13:58:53.640Z,15.20
2019-02-16T14:01:30.122Z,16.10
2019-02-16T14:04:06.863Z,13.80
2019-02-16T14:06:40.754Z,13.57
2019-02-16T14:09:14.592Z,15.13
2019-02-16T14:12:03.939Z,13.07
2019-02-16T14:14:38.827Z,17.37
2019-02-16T14:17:12.094Z,16.10
2019-02-16T14:19:41.443Z,14.13
2019-02-16T14:22:10.746Z,14.63
2019-02-16T14:24:41.678Z,13.40
2019-02-16T14:27:11.018Z,15.53
2019-02-16T14:29:40.312Z,15.20
2019-02-16T14:32:09.595Z,16.33
2019-02-16T14:34:38.906Z,13.93
2019-02-16T14:37:09.826Z,15.97
2019-02-16T14:39:39.139Z,16.63
2019-02-16T14:42:08.430Z,15.97
2019-02-16T14:44:37.734Z,16.20
2019-02-16T14:47:07.023Z,15.47
2019-02-16T14:49:36.327Z,16.50
2019-02-16T14:52:05.611Z,15.30
2019-02-16T14:54:34.963Z,13.33
2019-02-16T14:57:04.256Z,14.47
2019-02-16T14:59:33.563Z,14.73
2019-02-16T15:02:02.856Z,13.27
2019-02-16T15:04:32.187Z,17.00
2019-02-16T15:07:01.466Z,15.13
2019-02-16T15:09:31.738Z,16.30
2019-02-16T15:12:01.051Z,18.17
2019-02-16T15:14:32.566Z,17.60
2019-02-16T15:17:01.882Z,17.53
2019-02-16T15:19:31.178Z,14.97
2019-02-16T15:22:00.495Z,15.93
2019-02-16T15:24:29.788Z,15.23
2019-02-16T15:26:59.095Z,14.90
2019-02-16T15:29:28.389Z,17.27
2019-02-16T15:31:58.668Z,15.33
2019-02-16T15:34:28.519Z,15.17
2019-02-16T15:36:57.838Z,14.73
2019-02-16T15:39:27.143Z,16.23
2019-02-16T15:41:56.462Z,14.00
2019-02-16T15:44:25.758Z,14.93
2019-02-16T15:46:55.048Z,14.63
2019-02-16T15:49:25.516Z,15.13
2019-02-16T15:51:55.046Z,16.20
2019-02-16T15:54:24.424Z,15.23
2019-02-16T15:56:53.706Z,15.90
2019-02-16T15:59:23.033Z,14.83
2019-02-16T16:01:53.398Z,14.70
2019-02-16T16:04:22.772Z,16.03
2019-02-16T16:06:52.060Z,15.70
2019-02-16T16:09:31.703Z,15.17
2019-02-16T16:12:02.635Z,16.00
2019-02-16T16:14:36.486Z,14.80
2019-02-16T16:17:13.880Z,15.57
2019-02-16T16:19:47.646Z,14.20
2019-02-16T16:22:18.607Z,14.73
2019-02-16T16:25:04.327Z,16.00
2019-02-16T16:27:53.251Z,15.87
2019-02-16T16:30:24.210Z,14.87
2019-02-16T16:33:10.226Z,15.57
2019-02-16T16:35:41.155Z,20.47
2019-02-16T16:38:12.106Z,15.53
2019-02-16T16:40:43.035Z,14.43
2019-02-16T16:43:16.699Z,14.73
2019-02-16T16:45:50.514Z,15.87
2019-02-16T16:48:33.530Z,14.83
2019-02-16T16:51:21.111Z,15.73
2019-02-16T16:53:55.091Z,14.60
2019-02-16T16:56:28.626Z,15.67
2019-02-16T16:59:13.327Z,15.47
2019-02-16T17:01:59.054Z,16.40
2019-02-16T17:04:36.055Z,18.77
2019-02-16T17:07:19.059Z,16.63
2019-02-16T17:09:50.023Z,17.63
2019-02-16T17:12:23.492Z,17.37
2019-02-16T17:14:54.444Z,15.83
2019-02-16T17:17:41.765Z,18.17
2019-02-16T17:20:12.718Z,22.77
2019-02-16T17:22:46.331Z,17.67
2019-02-16T17:25:17.279Z,16.77
2019-02-16T17:27:48.194Z,18.57
2019-02-16T17:30:19.140Z,16.80
2019-02-16T17:32:50.091Z,15.77
2019-02-16T17:35:36.282Z,16.87
2019-02-16T17:38:07.230Z,16.80
2019-02-16T17:40:38.146Z,15.83
2019-02-16T17:43:17.810Z,16.17
2019-02-16T17:45:51.402Z,16.67
2019-02-16T17:48:38.675Z,16.20
2019-02-16T17:51:09.607Z,15.80
2019-02-16T17:53:55.186Z,17.17
2019-02-16T17:56:32.042Z,16.50
2019-02-16T17:59:05.738Z,17.60
2019-02-16T18:01:48.518Z,16.23
2019-02-16T18:04:36.581Z,17.13
2019-02-16T18:07:13.183Z,18.90
2019-02-16T18:09:46.652Z,19.33
2019-02-16T18:12:17.583Z,19.73
2019-02-16T18:15:04.799Z,17.27
2019-02-16T18:17:38.847Z,16.20
2019-02-16T18:20:15.761Z,17.73
2019-02-16T18:23:02.687Z,17.53
2019-02-16T18:25:45.424Z,17.47
2019-02-16T18:28:22.306Z,17.23
2019-02-16T18:31:02.378Z,20.77
2019-02-16T18:33:45.436Z,19.70
2019-02-16T18:36:16.403Z,17.10
2019-02-16T18:38:49.810Z,17.53
2019-02-16T18:41:35.299Z,18.80
2019-02-16T18:44:24.347Z,18.27
2019-02-16T18:46:55.274Z,16.90
2019-02-16T18:49:41.098Z,16.07
2019-02-16T18:52:24.283Z,15.80
2019-02-16T18:54:55.236Z,15.93
2019-02-16T19:00:33.838Z,16.70
2019-02-16T19:03:17.824Z,17.10
2019-02-16T19:05:51.475Z,17.17
2019-02-16T19:08:31.155Z,17.67
2019-02-16T19:11:18.094Z,18.73
2019-02-16T19:13:57.975Z,15.83
2019-02-16T19:16:28.914Z,18.07
2019-02-16T19:19:02.511Z,17.27
2019-02-16T19:21:38.899Z,17.47
2019-02-16T19:24:15.779Z,15.20
2019-02-16T19:27:02.079Z,13.40
2019-02-16T19:29:35.682Z,15.17
2019-02-16T19:32:06.636Z,16.30
2019-02-16T19:34:43.724Z,15.50
2019-02-16T19:37:14.698Z,14.27
2019-02-16T19:39:45.617Z,14.77
2019-02-16T19:42:19.206Z,14.77
2019-02-16T19:44:50.150Z,15.33
2019-02-16T19:47:21.066Z,15.83
2019-02-16T19:50:10.168Z,15.73
2019-02-16T19:52:57.417Z,16.03
2019-02-16T19:55:31.022Z,15.93
2019-02-16T19:58:01.971Z,16.77
2019-02-16T20:00:38.628Z,18.60
2019-02-16T20:03:26.625Z,17.83
2019-02-16T20:06:09.635Z,18.23
2019-02-16T20:08:43.379Z,18.53
2019-02-16T20:11:18.083Z,17.27
2019-02-16T20:14:00.862Z,17.90
2019-02-16T20:16:31.823Z,17.90
2019-02-16T20:19:20.842Z,18.77
2019-02-16T20:21:54.487Z,17.93
2019-02-16T20:24:34.194Z,19.00
2019-02-16T20:27:07.889Z,15.63
2019-02-16T20:29:41.744Z,16.40
2019-02-16T20:32:17.028Z,18.17
2019-02-16T20:34:50.686Z,15.40
2019-02-16T20:37:39.429Z,17.30
2019-02-16T20:40:16.347Z,17.10
2019-02-16T20:42:47.298Z,16.97
2019-02-16T20:45:18.231Z,17.70
2019-02-16T20:47:49.185Z,18.27
2019-02-16T20:50:36.272Z,15.53
2019-02-16T20:53:12.983Z,15.77
2019-02-16T20:55:56.006Z,17.40
2019-02-16T20:58:26.938Z,14.80
2019-02-16T21:00:57.893Z,16.37
2019-02-16T21:03:28.811Z,15.40
2019-02-16T21:05:59.763Z,14.67
2019-02-16T21:08:42.312Z,16.80
2019-02-16T21:11:15.703Z,15.43
2019-02-16T21:13:46.643Z,16.40
2019-02-16T21:16:17.564Z,16.60
2019-02-16T21:18:51.183Z,16.20
2019-02-16T21:21:28.047Z,13.87
2019-02-16T21:24:01.714Z,14.60
2019-02-16T21:26:44.675Z,14.20
2019-02-16T21:29:31.672Z,14.80
2019-02-16T21:32:05.282Z,14.00
2019-02-16T21:34:52.045Z,15.50
2019-02-16T21:37:34.563Z,15.63
2019-02-16T21:40:08.863Z,15.77
2019-02-16T21:42:39.921Z,15.90
2019-02-16T21:45:27.006Z,16.47
2019-02-16T21:48:10.091Z,16.93
2019-02-16T21:50:57.073Z,16.30
2019-02-16T21:53:36.751Z,16.50
2019-02-16T21:56:20.271Z,16.70
2019-02-16T21:59:00.251Z,16.20
2019-02-16T22:01:47.266Z,17.33
2019-02-16T22:04:18.435Z,14.43
2019-02-16T22:06:55.432Z,14.90
2019-02-16T22:09:35.427Z,14.60
2019-02-16T22:12:12.143Z,15.23
2019-02-16T22:14:41.439Z,14.43
2019-02-16T22:17:10.721Z,15.37
2019-02-16T22:19:40.034Z,16.03
2019-02-16T22:22:09.339Z,14.33
2019-02-16T22:24:38.863Z,15.77
2019-02-16T22:27:08.172Z,15.83
2019-02-16T22:29:37.446Z,14.93
2019-02-16T22:32:06.758Z,15.20
2019-02-16T22:34:36.039Z,15.87
2019-02-16T22:37:05.352Z,15.97
2019-02-16T22:39:34.632Z,15.13
2019-02-16T22:42:06.283Z,14.47
2019-02-16T22:44:35.563Z,16.10
2019-02-16T22:47:04.871Z,16.20
2019-02-16T22:49:34.589Z,16.33
2019-02-16T22:52:04.454Z,16.10
2019-02-16T22:54:33.836Z,16.20
2019-02-16T22:57:03.156Z,16.60
2019-02-16T22:59:33.420Z,16.40
2019-02-16T23:02:02.792Z,16.30
2019-02-16T23:04:34.340Z,15.40
2019-02-16T23:07:03.624Z,18.10
2019-02-16T23:09:33.206Z,16.37
2019-02-16T23:12:02.495Z,15.77
2019-02-16T23:14:31.946Z,15.43
2019-02-16T23:17:01.235Z,15.97
2019-02-16T23:19:30.607Z,15.13
2019-02-16T23:22:00.128Z,15.67
2019-02-16T23:24:29.444Z,14.83
2019-02-16T23:26:58.722Z,14.23
2019-02-16T23:29:28.030Z,15.53
2019-02-16T23:31:58.439Z,14.67
2019-02-16T23:34:27.746Z,15.53
2019-02-16T23:36:57.046Z,14.60
2019-02-16T23:39:27.961Z,14.40
2019-02-16T23:41:57.259Z,13.77
2019-02-16T23:44:26.544Z,13.37
2019-02-16T23:46:55.858Z,15.40
2019-02-16T23:49:25.144Z,13.83
2019-02-16T23:51:54.455Z,14.43
2019-02-16T23:54:23.747Z,14.13
2019-02-16T23:56:54.019Z,14.07
2019-02-16T23:59:23.301Z,15.97
